Bananal, Brazil
Current Conditions -  °F | °C
As of 12:00 AM on Thursday 23 Oct 2014 (Local Time) from SBSC Reporting Station
Broken Clouds Broken Clouds  
Wind Chill: 70°   Ceiling: 3500
Heat Index: 70°   Visibility: 6mi
Dew Point: 57°   Wind: 2mph
Humidity: 64%   Direction: 140°SE
Pressure: 30.18"   Gusts: NA
Location:  22.68°S, 44.32°W
Report Text: SBSC 230200Z 14002KT 9999 BKN035 21/14 Q1022
Loading
Personal Weather Stations






























Interactive Weather Map
Tropical Storm Tracking
New forecast layout! Learn more

10-Day Weather Forecast

Advertisements
Track Severe Weather on mobile